»·PEaware :: INDIE36 KWVI-KSJC

INDIE36 :: KWVI-KSJC

FLIGHT INFORMATION

Flight Status: Arrived
Operator: Unknown
More flights by this operator :: More flights under this callsign
Pilot: Indie I. (23357)
Aircraft: BEECH AIRCRAFT T-6A TEXAN
(TEX2)
More flights by this aircraft type
Origin: KWVI Watsonville Mun
United States
Destination: KSJC Mineta San Jose Intl
United States
More flights between these airports :: More routes between these airports
Route: KWVI WVI4 SNS BSR BSR/141/5 SNS KWVI KLIDE
File this flight plan on PilotEdge
Remarks: +CW / Delay Hunter High MOA with Indie33 (self deconflict) 0+15, Delay at KWVI for 1 approach
Altitude:
(Current/Filed)
11,000ft
Speed:
(Current/Filed)
258kts
Departed: 15-Apr-19 06:50 AM
Arrived: 15-Apr-19 08:01 AM
Distance/Time
Traveled:
27nm/1:11
Distance/Time
To Go:
Arrived

Flight Plot

Page will automatically refresh every two minutes.

Flight plan parsing failed; only flown route is shown


Map Options




Map Legend


Flown Route
Filed Route
Departure Airport
Arrival Airport
Navaid (VOR, NDB)
Fix

Horizontal Profiles

Position Reports

Time Latitude Longitude Heading Altitude Ground
Speed
15-Apr-19 06:31 36.931156 -121.791757 281 163ft 0kts
15-Apr-19 06:32 36.931156 -121.791760 281 163ft 0kts
15-Apr-19 06:33 36.931157 -121.791764 281 163ft 0kts
15-Apr-19 06:34 36.931157 -121.791767 281 163ft 0kts
15-Apr-19 06:35 36.931158 -121.791771 281 163ft 0kts
15-Apr-19 06:36 36.931158 -121.791774 281 163ft 0kts
15-Apr-19 06:37 36.931159 -121.791777 281 163ft 0kts
15-Apr-19 06:38 36.931159 -121.791779 281 163ft 0kts
15-Apr-19 06:39 36.931160 -121.791782 281 163ft 0kts
15-Apr-19 06:40 36.931160 -121.791785 280 163ft 0kts
15-Apr-19 06:41 36.931187 -121.791831 331 163ft 3kts
15-Apr-19 06:42 36.931630 -121.791707 18 163ft 2kts
15-Apr-19 06:44 36.933736 -121.790562 32 163ft 18kts
15-Apr-19 06:45 36.936608 -121.788197 32 163ft 8kts
15-Apr-19 06:46 36.938706 -121.786990 302 163ft 0kts
15-Apr-19 06:47 36.938715 -121.787007 302 163ft 0kts
15-Apr-19 06:48 36.938716 -121.787010 302 163ft 0kts
15-Apr-19 06:49 36.938825 -121.787214 303 163ft 10kts
15-Apr-19 06:50 36.921760 -121.800824 218 867ft 148kts
15-Apr-19 06:51 36.880790 -121.829137 174 3574ft 201kts
15-Apr-19 06:52 36.828062 -121.818182 160 7405ft 181kts
15-Apr-19 06:53 36.784742 -121.780315 128 10587ft 199kts
15-Apr-19 06:54 36.744028 -121.717529 130 11036ft 244kts
15-Apr-19 06:55 36.697204 -121.654787 129 10988ft 252kts
15-Apr-19 06:56 36.652470 -121.587600 144 11064ft 243kts
15-Apr-19 06:57 36.586662 -121.597842 196 11053ft 248kts
15-Apr-19 06:58 36.519349 -121.615161 180 11051ft 250kts
15-Apr-19 06:59 36.449542 -121.618920 183 11017ft 250kts
15-Apr-19 07:00 36.379575 -121.623732 183 11022ft 249kts
15-Apr-19 07:01 36.310160 -121.629320 184 11022ft 250kts
15-Apr-19 07:02 36.240858 -121.636846 184 11032ft 250kts
15-Apr-19 07:03 36.171256 -121.642924 178 11029ft 250kts
15-Apr-19 07:04 36.111171 -121.606536 162 11108ft 250kts
15-Apr-19 07:04 36.064665 -121.578548 150 13732ft 202kts
15-Apr-19 07:06 36.011549 -121.524016 92 15237ft 245kts
15-Apr-19 07:06 36.015024 -121.452554 52 15318ft 253kts
15-Apr-19 07:07 36.066104 -121.389699 42 15123ft 263kts
15-Apr-19 07:09 36.098193 -121.307967 122 15308ft 274kts
15-Apr-19 07:09 36.068285 -121.241893 120 15434ft 269kts
15-Apr-19 07:10 36.026288 -121.207740 266 15331ft 292kts
15-Apr-19 07:12 36.037902 -121.257255 6 15655ft 294kts
15-Apr-19 07:12 36.062647 -121.211501 123 16003ft 291kts
15-Apr-19 07:13 36.011519 -121.147207 203 16321ft 254kts
15-Apr-19 07:14 36.032333 -121.213652 333 15326ft 304kts
15-Apr-19 07:15 36.091132 -121.245599 9 14982ft 194kts
15-Apr-19 07:16 36.085674 -121.243061 333 15027ft 192kts
15-Apr-19 07:17 36.083294 -121.244982 15 14987ft 194kts
15-Apr-19 07:18 36.101402 -121.237822 95 14935ft 198kts
15-Apr-19 07:19 36.079162 -121.200921 293 14951ft 199kts
15-Apr-19 07:20 36.084100 -121.221171 271 15002ft 227kts
15-Apr-19 07:21 36.084650 -121.304475 268 15083ft 250kts
15-Apr-19 07:22 36.081410 -121.391834 266 15002ft 259kts
15-Apr-19 07:23 36.083083 -121.479952 295 14828ft 258kts
15-Apr-19 07:24 36.145739 -121.510006 349 13027ft 255kts
15-Apr-19 07:25 36.214694 -121.525376 349 10383ft 241kts
15-Apr-19 07:26 36.280353 -121.539346 349 7722ft 233kts
15-Apr-19 07:27 36.343605 -121.551587 352 7022ft 227kts
15-Apr-19 07:28 36.406225 -121.561125 352 6034ft 225kts
15-Apr-19 07:29 36.468488 -121.571784 352 5959ft 226kts
15-Apr-19 07:30 36.530870 -121.580397 354 5615ft 220kts
15-Apr-19 07:31 36.591002 -121.588591 345 4948ft 214kts
15-Apr-19 07:32 36.647249 -121.601331 351 4040ft 165kts
15-Apr-19 07:33 36.689764 -121.618169 318 4012ft 160kts
15-Apr-19 07:34 36.728503 -121.647368 328 3709ft 161kts
15-Apr-19 07:35 36.765241 -121.674437 329 3729ft 151kts
15-Apr-19 07:36 36.802530 -121.699425 331 3521ft 150kts
15-Apr-19 07:37 36.841186 -121.725508 329 2498ft 160kts
15-Apr-19 07:38 36.873702 -121.748157 332 2085ft 124kts
15-Apr-19 07:39 36.902456 -121.765916 332 1338ft 107kts
15-Apr-19 07:40 36.924917 -121.785024 235 1007ft 122kts
15-Apr-19 07:41 36.901615 -121.794785 313 884ft 92kts
15-Apr-19 07:42 36.929000 -121.795768 29 200ft 104kts
15-Apr-19 07:43 36.957515 -121.787112 314 2140ft 139kts
15-Apr-19 07:44 36.936586 -121.826217 167 4460ft 211kts
15-Apr-19 07:45 36.889312 -121.780841 142 5016ft 219kts
15-Apr-19 07:46 36.876948 -121.720749 33 4962ft 220kts
15-Apr-19 07:47 36.933075 -121.691817 15 4993ft 220kts
15-Apr-19 07:48 36.991780 -121.669688 17 5036ft 218kts
15-Apr-19 07:49 37.051439 -121.652441 352 4956ft 220kts
15-Apr-19 07:50 37.104061 -121.671490 342 4959ft 156kts
15-Apr-19 07:51 37.146124 -121.692183 321 4628ft 161kts
15-Apr-19 07:52 37.178855 -121.729763 317 3992ft 158kts
15-Apr-19 07:53 37.209124 -121.761753 319 3962ft 115kts
15-Apr-19 07:54 37.233594 -121.787982 318 3177ft 112kts
15-Apr-19 07:55 37.256334 -121.814294 317 2584ft 111kts
15-Apr-19 07:56 37.279505 -121.838352 318 2100ft 108kts
15-Apr-19 07:57 37.302495 -121.863740 317 1469ft 110kts
15-Apr-19 07:58 37.324984 -121.888710 318 943ft 105kts
15-Apr-19 07:59 37.347574 -121.913346 319 336ft 106kts
15-Apr-19 08:00 37.364449 -121.931858 319 65ft 30kts
15-Apr-19 08:01 37.366561 -121.935447 229 65ft 0kts
15-Apr-19 08:02 37.365707 -121.936616 232 65ft 10kts

Navigation Log

Ident Type
Flight plan parsing failed, navigation log unavailable